createdAt,value
2023-05-06T00:01:45.359Z,100545.31
2023-05-06T00:04:20.343Z,100548.75
2023-05-06T00:06:56.943Z,100560.13
2023-05-06T00:09:31.633Z,100563.84
2023-05-06T00:12:06.742Z,100554.66
2023-05-06T00:14:41.672Z,100565.72
2023-05-06T00:17:16.125Z,100553.31
2023-05-06T00:19:52.514Z,100560.09
2023-05-06T00:22:28.478Z,100565.72
2023-05-06T00:25:03.481Z,100547.03
2023-05-06T00:27:37.848Z,100553.91
2023-05-06T00:30:13.636Z,100566.66
2023-05-06T00:32:48.086Z,100565.44
2023-05-06T00:35:22.789Z,100557.47
2023-05-06T00:37:59.793Z,100555.94
2023-05-06T00:40:34.539Z,100556.81
2023-05-06T00:43:09.027Z,100551.53
2023-05-06T00:45:44.089Z,100557.97
2023-05-06T00:48:19.553Z,100558.44
2023-05-06T00:50:54.913Z,100555.72
2023-05-06T00:53:30.792Z,100554.31
2023-05-06T00:56:05.711Z,100560.03
2023-05-06T00:58:40.575Z,100549.37
2023-05-06T01:01:15.818Z,100548.97
2023-05-06T01:03:50.297Z,100547.28
2023-05-06T01:06:31.150Z,100553.72
2023-05-06T01:09:19.814Z,100538.50
2023-05-06T01:11:59.900Z,100548.63
2023-05-06T01:14:41.199Z,100542.75
2023-05-06T01:17:18.001Z,100541.31
2023-05-06T01:19:54.467Z,100537.91
2023-05-06T01:22:30.546Z,100538.13
2023-05-06T01:25:06.879Z,100532.69
2023-05-06T01:27:41.693Z,100539.63
2023-05-06T01:30:18.753Z,100546.66
2023-05-06T01:33:02.284Z,100544.72
2023-05-06T01:35:47.863Z,100539.38
2023-05-06T01:38:31.356Z,100541.84
2023-05-06T01:41:07.561Z,100532.44
2023-05-06T01:43:45.826Z,100548.63
2023-05-06T01:46:23.020Z,100546.91
2023-05-06T01:49:01.376Z,100539.50
2023-05-06T01:51:35.931Z,100539.09
2023-05-06T01:54:10.606Z,100526.44
2023-05-06T01:56:46.711Z,100542.44
2023-05-06T01:59:22.513Z,100552.91
2023-05-06T02:01:56.894Z,100531.69
2023-05-06T02:04:31.565Z,100551.97
2023-05-06T02:07:06.019Z,100539.38
2023-05-06T02:09:40.822Z,100548.03
2023-05-06T02:12:16.465Z,100549.63
2023-05-06T02:14:51.049Z,100552.16
2023-05-06T02:17:25.524Z,100544.09
2023-05-06T02:20:00.830Z,100552.91
2023-05-06T02:22:35.330Z,100541.16
2023-05-06T02:25:10.986Z,100539.50
2023-05-06T02:27:47.340Z,100537.69
2023-05-06T02:30:22.043Z,100542.88
2023-05-06T02:32:56.444Z,100541.22
2023-05-06T02:35:31.116Z,100546.81
2023-05-06T02:38:05.534Z,100541.25
2023-05-06T02:40:41.603Z,100537.12
2023-05-06T02:43:17.311Z,100534.22
2023-05-06T02:45:52.062Z,100533.78
2023-05-06T02:48:26.507Z,100541.94
2023-05-06T02:51:02.152Z,100532.84
2023-05-06T02:53:36.579Z,100538.97
2023-05-06T02:56:11.255Z,100534.69
2023-05-06T02:58:46.950Z,100536.69
2023-05-06T03:01:21.936Z,100536.22
2023-05-06T03:03:56.536Z,100528.53
2023-05-06T03:06:31.725Z,100527.31
2023-05-06T03:09:06.580Z,100522.13
2023-05-06T03:11:41.263Z,100533.94
2023-05-06T03:14:17.896Z,100532.22
2023-05-06T03:16:52.819Z,100528.53
2023-05-06T03:19:27.343Z,100536.78
2023-05-06T03:22:02.007Z,100529.00
2023-05-06T03:24:37.216Z,100532.03
2023-05-06T03:27:12.536Z,100534.19
2023-05-06T03:29:48.720Z,100541.53
2023-05-06T03:32:23.986Z,100540.50
2023-05-06T03:34:58.674Z,100538.53
2023-05-06T03:37:34.218Z,100539.88
2023-05-06T03:40:10.368Z,100538.84
2023-05-06T03:42:46.207Z,100542.81
2023-05-06T03:45:25.212Z,100547.41
2023-05-06T03:48:00.804Z,100536.00
2023-05-06T03:50:36.195Z,100534.59
2023-05-06T03:53:11.061Z,100542.16
2023-05-06T03:55:46.072Z,100545.53
2023-05-06T03:58:20.880Z,100548.38
2023-05-06T04:00:56.784Z,100541.28
2023-05-06T04:03:32.397Z,100548.50
2023-05-06T04:06:07.649Z,100542.69
2023-05-06T04:08:42.317Z,100546.94
2023-05-06T04:11:16.966Z,100557.50
2023-05-06T04:13:53.552Z,100567.38
2023-05-06T04:16:29.686Z,100568.44
2023-05-06T04:19:06.509Z,100573.53
2023-05-06T04:21:42.091Z,100569.97
2023-05-06T04:24:17.214Z,100575.25
2023-05-06T04:26:51.952Z,100566.13
2023-05-06T04:29:27.541Z,100574.06
2023-05-06T04:32:05.010Z,100581.19
2023-05-06T04:34:40.771Z,100576.53
2023-05-06T04:37:15.932Z,100578.59
2023-05-06T04:39:50.848Z,100574.88
2023-05-06T04:42:26.449Z,100576.47
2023-05-06T04:45:02.205Z,100574.00
2023-05-06T04:47:38.743Z,100575.13
2023-05-06T04:50:13.700Z,100572.28
2023-05-06T04:52:48.493Z,100581.16
2023-05-06T04:55:23.415Z,100578.41
2023-05-06T04:57:58.356Z,100580.03
2023-05-06T05:00:33.256Z,100579.94
2023-05-06T05:03:09.755Z,100577.38
2023-05-06T05:05:44.581Z,100573.38
2023-05-06T05:08:21.511Z,100574.75
2023-05-06T05:10:56.399Z,100574.25
2023-05-06T05:13:31.067Z,100570.16
2023-05-06T05:16:06.680Z,100564.44
2023-05-06T05:18:43.059Z,100562.75
2023-05-06T05:21:18.694Z,100557.50
2023-05-06T05:23:53.011Z,100559.22
2023-05-06T05:26:27.773Z,100562.50
2023-05-06T05:29:02.463Z,100564.00
2023-05-06T05:31:39.091Z,100571.19
2023-05-06T05:34:14.959Z,100569.66
2023-05-06T05:36:49.926Z,100561.22
2023-05-06T05:39:24.444Z,100556.09
2023-05-06T05:41:59.224Z,100563.75
2023-05-06T05:44:34.603Z,100560.06
2023-05-06T05:47:09.978Z,100558.13
2023-05-06T05:49:46.394Z,100550.53
2023-05-06T05:52:21.412Z,100553.59
2023-05-06T05:54:55.726Z,100547.59
2023-05-06T05:57:30.962Z,100546.03
2023-05-06T06:00:05.941Z,100546.25
2023-05-06T06:02:57.078Z,100552.37
2023-05-06T06:05:32.274Z,100552.37
2023-05-06T06:08:07.141Z,100553.09
2023-05-06T06:10:42.357Z,100553.84
2023-05-06T06:13:17.422Z,100547.12
2023-05-06T06:15:52.382Z,100547.50
2023-05-06T06:18:29.148Z,100552.00
2023-05-06T06:21:06.217Z,100554.91
2023-05-06T06:23:40.964Z,100556.41
2023-05-06T06:26:15.732Z,100552.34
2023-05-06T06:28:50.388Z,100547.66
2023-05-06T06:31:25.197Z,100550.00
2023-05-06T06:34:05.378Z,100554.31
2023-05-06T06:36:45.252Z,100554.81
2023-05-06T06:39:19.623Z,100549.03
2023-05-06T06:41:58.255Z,100551.09
2023-05-06T06:44:32.675Z,100548.81
2023-05-06T06:47:07.365Z,100550.31
2023-05-06T06:49:43.123Z,100550.59
2023-05-06T06:52:17.815Z,100558.91
2023-05-06T06:54:52.135Z,100558.44
2023-05-06T14:03:15.141Z,100367.94
2023-05-06T14:05:50.453Z,100367.94
2023-05-06T14:08:24.756Z,100373.97
2023-05-06T14:10:59.339Z,100370.31
2023-05-06T14:13:35.361Z,100373.75
2023-05-06T14:16:10.032Z,100373.13
2023-05-06T14:18:46.111Z,100365.47
2023-05-06T14:21:20.972Z,100364.59
2023-05-06T14:23:55.418Z,100368.69
2023-05-06T14:26:29.982Z,100359.31
2023-05-06T14:29:04.229Z,100351.19
2023-05-06T14:31:38.862Z,100350.44
2023-05-06T14:34:14.879Z,100361.41
2023-05-06T14:36:49.612Z,100367.69
2023-05-06T14:39:23.920Z,100363.63
2023-05-06T14:41:59.377Z,100365.87
2023-05-06T14:44:33.670Z,100363.84
2023-05-06T14:47:08.316Z,100368.16
2023-05-06T14:49:44.264Z,100366.84
2023-05-06T14:52:19.173Z,100364.28
2023-05-06T14:54:53.431Z,100368.22
2023-05-06T14:57:28.048Z,100363.81
2023-05-06T15:00:04.758Z,100360.78
2023-05-06T15:02:40.873Z,100368.06
2023-05-06T15:05:16.717Z,100370.31
2023-05-06T15:07:51.648Z,100364.59
2023-05-06T15:10:26.099Z,100374.91
2023-05-06T15:13:00.832Z,100372.06
2023-05-06T15:15:35.144Z,100374.25
2023-05-06T15:18:09.807Z,100365.38
2023-05-06T15:20:45.590Z,100371.06
2023-05-06T15:23:21.667Z,100367.44
2023-05-06T15:25:56.028Z,100354.88
2023-05-06T15:28:30.688Z,100350.59
2023-05-06T15:31:05.149Z,100354.81
2023-05-06T15:33:39.765Z,100348.19
2023-05-06T15:36:15.528Z,100346.06
2023-05-06T15:39:00.524Z,100347.84
2023-05-06T15:41:37.535Z,100346.19
2023-05-06T15:44:15.969Z,100356.50
2023-05-06T15:46:50.735Z,100343.69
2023-05-06T15:49:49.383Z,100344.56
2023-05-06T15:52:21.356Z,100336.94
2023-05-06T15:54:59.453Z,100339.72
2023-05-06T15:57:34.197Z,100343.81
2023-05-06T16:00:10.404Z,100358.41
2023-05-06T16:02:45.612Z,100344.84
2023-05-06T16:05:20.064Z,100345.87
2023-05-06T16:07:56.792Z,100358.41
2023-05-06T16:10:31.262Z,100355.25
2023-05-06T16:13:05.984Z,100353.44
2023-05-06T16:15:40.380Z,100354.88
2023-05-06T16:18:15.007Z,100352.91
2023-05-06T16:20:49.390Z,100356.78
2023-05-06T16:23:26.382Z,100352.28
2023-05-06T16:26:01.083Z,100361.47
2023-05-06T16:28:36.622Z,100364.94
2023-05-06T16:31:12.297Z,100368.84
2023-05-06T16:33:46.960Z,100359.84
2023-05-06T16:36:21.274Z,100376.37
2023-05-06T16:38:57.409Z,100367.56
2023-05-06T16:41:31.808Z,100372.50
2023-05-06T16:44:06.871Z,100379.09
2023-05-06T16:46:41.241Z,100381.66
2023-05-06T16:49:16.196Z,100386.59
2023-05-06T16:51:50.559Z,100375.53
2023-05-06T16:54:26.995Z,100380.38
2023-05-06T16:57:01.658Z,100375.25
2023-05-06T16:59:36.442Z,100370.41
2023-05-06T17:02:11.060Z,100370.53
2023-05-06T17:04:45.883Z,100355.72
2023-05-06T17:07:21.355Z,100354.75
2023-05-06T17:09:57.550Z,100354.28
2023-05-06T17:12:32.902Z,100359.19
2023-05-06T17:15:09.738Z,100349.97
2023-05-06T17:17:44.199Z,100354.81
2023-05-06T17:20:20.111Z,100350.81
2023-05-06T17:22:54.745Z,100347.78
2023-05-06T17:25:30.826Z,100339.78
2023-05-06T17:28:05.549Z,100338.34
2023-05-06T17:30:40.173Z,100337.72
2023-05-06T17:33:14.551Z,100338.63
2023-05-06T17:35:49.299Z,100337.34
2023-05-06T17:38:23.721Z,100336.63
2023-05-06T17:41:00.041Z,100345.84
2023-05-06T17:43:34.796Z,100346.69
2023-05-06T17:46:09.609Z,100343.06
2023-05-06T17:48:44.173Z,100342.66
2023-05-06T17:51:20.015Z,100342.13
2023-05-06T17:53:54.771Z,100348.41
2023-05-06T17:56:30.848Z,100354.81
2023-05-06T17:59:05.689Z,100347.84
2023-05-06T18:01:40.440Z,100352.94
2023-05-06T18:04:15.375Z,100357.25
2023-05-06T18:06:49.711Z,100359.00
2023-05-06T18:09:24.380Z,100362.78
2023-05-06T18:12:00.151Z,100369.06
2023-05-06T18:14:35.276Z,100372.34
2023-05-06T18:17:09.531Z,100374.91
2023-05-06T18:19:44.352Z,100375.03
2023-05-06T18:22:18.651Z,100386.03
2023-05-06T18:24:55.444Z,100389.87
2023-05-06T18:27:32.473Z,100391.97
2023-05-06T18:30:09.095Z,100392.69
2023-05-06T18:32:43.474Z,100391.69
2023-05-06T18:35:18.268Z,100394.84
2023-05-06T18:37:52.677Z,100398.41
2023-05-06T18:40:27.446Z,100392.84
2023-05-06T18:43:03.196Z,100392.63
2023-05-06T18:45:37.890Z,100395.97
2023-05-06T18:48:12.557Z,100391.88
2023-05-06T18:50:47.457Z,100391.12
2023-05-06T18:53:22.336Z,100391.94
2023-05-06T18:55:57.144Z,100404.91
2023-05-06T18:58:33.096Z,100400.78
2023-05-06T19:01:08.925Z,100408.97
2023-05-06T19:03:43.539Z,100408.06
2023-05-06T19:06:18.461Z,100407.47
2023-05-06T19:08:53.835Z,100414.09
2023-05-06T19:11:28.622Z,100424.03
2023-05-06T19:14:04.474Z,100426.84
2023-05-06T19:16:39.195Z,100422.69
2023-05-06T19:19:13.726Z,100418.72
2023-05-06T19:21:48.310Z,100422.53
2023-05-06T19:24:22.788Z,100422.91
2023-05-06T19:26:57.706Z,100423.19
2023-05-06T19:29:33.806Z,100437.59
2023-05-06T19:32:08.806Z,100438.34
2023-05-06T19:34:43.217Z,100433.50
2023-05-06T19:37:17.795Z,100438.88
2023-05-06T19:39:52.544Z,100447.44
2023-05-06T19:42:27.357Z,100464.22
2023-05-06T19:45:08.438Z,100481.50
2023-05-06T19:47:43.360Z,100478.22
2023-05-06T19:50:17.779Z,100478.94
2023-05-06T19:52:52.371Z,100463.56
2023-05-06T19:55:26.681Z,100460.53
2023-05-06T19:58:02.336Z,100466.09
2023-05-06T20:00:38.740Z,100453.66
2023-05-06T20:03:13.599Z,100459.22
2023-05-06T20:05:48.220Z,100464.78
2023-05-06T20:08:24.598Z,100460.75
2023-05-06T20:10:59.078Z,100461.28
2023-05-06T20:13:34.347Z,100464.56
2023-05-06T20:16:10.230Z,100452.66
2023-05-06T20:18:45.304Z,100452.16
2023-05-06T20:21:19.850Z,100448.34
2023-05-06T20:23:54.857Z,100448.34
2023-05-06T20:26:29.313Z,100455.19
2023-05-06T20:29:04.154Z,100450.37
2023-05-06T20:31:40.032Z,100449.97
2023-05-06T20:34:15.016Z,100445.28
2023-05-06T20:36:50.027Z,100445.78
2023-05-06T20:39:24.767Z,100443.00
2023-05-06T20:41:59.126Z,100436.94
2023-05-06T20:44:33.811Z,100447.56
2023-05-06T20:47:12.506Z,100449.38
2023-05-06T20:49:47.212Z,100453.94
2023-05-06T20:52:22.142Z,100449.41
2023-05-06T20:54:56.853Z,100453.19
2023-05-06T20:57:31.198Z,100459.78
2023-05-06T21:00:07.962Z,100456.75
2023-05-06T21:02:43.839Z,100449.12
2023-05-06T21:05:18.669Z,100458.50
2023-05-06T21:07:53.132Z,100462.56
2023-05-06T21:10:27.753Z,100457.47
2023-05-06T21:13:02.081Z,100457.47
2023-05-06T21:15:37.800Z,100453.41
2023-05-06T21:18:14.015Z,100449.12
2023-05-06T21:20:49.062Z,100456.25
2023-05-06T21:23:23.646Z,100456.50
2023-05-06T21:25:59.458Z,100450.69
2023-05-06T21:28:34.440Z,100454.47
2023-05-06T21:31:09.297Z,100454.72
2023-05-06T21:33:45.373Z,100453.97
2023-05-06T21:36:20.060Z,100453.97
2023-05-06T21:39:01.721Z,100455.16
2023-05-06T21:41:36.705Z,100450.41
2023-05-06T21:44:11.456Z,100453.63
2023-05-06T21:46:46.129Z,100468.59
2023-05-06T21:49:22.898Z,100466.84
2023-05-06T21:51:57.656Z,100466.84
2023-05-06T21:54:32.322Z,100470.34
2023-05-06T21:57:08.277Z,100465.56
2023-05-06T21:59:42.650Z,100464.28
2023-05-06T22:02:58.332Z,100463.06
2023-05-06T22:05:33.443Z,100463.06
2023-05-06T22:08:07.833Z,100477.13
2023-05-06T22:10:42.553Z,100461.25
2023-05-06T22:13:17.045Z,100461.78
